Dyess AFB, Texas
Current Conditions -  °F | °C
As of 4:07 PM on Wednesday 22 Oct 2014 (Local Time) from KDYS Reporting Station
Overcast Overcast  
Wind Chill: 70°   Ceiling: 7500
Heat Index: 70°   Visibility: 10mi
Dew Point: 57°   Wind: 3mph
Humidity: 64%   Direction: 200°SSW
Pressure: 30.1"   Gusts: NA
Location:  32.42°N, 99.82°W
Report Text: KDYS 222107Z AUTO 20003KT 10SM FEW048 OVC075 21/14 A3010 RMK AO2
Loading
Personal Weather Stations






























Interactive Weather Map New forecast layout! Learn more

10-Day Weather Forecast

Advertisements
Track Severe Weather on mobile